Time;durP1;ratioP1;P1;durP2;ratioP2;P2;SDS_P1;SDS_P2;PMS_P1;PMS_P2;Temp;Humidity;BMP_temperature;BMP_pressure;BME280_temperature;BME280_humidity;BME280_pressure;Samples;Min_cycle;Max_cycle;Signal;HPM_P1;HPM_P2
2023/10/27 00:00:55;;;;;;;26.90;14.50;;;;;;;9.90;100.00;98955.44;4953474;28;20058;-69
2023/10/27 00:03:20;;;;;;;30.52;15.68;;;;;;;9.94;100.00;98963.63;4941547;28;20030;-69
2023/10/27 00:05:46;;;;;;;24.08;15.55;;;;;;;9.94;100.00;98961.84;4938947;28;20113;-69
2023/10/27 00:08:13;;;;;;;20.60;13.45;;;;;;;9.99;100.00;98966.44;4960672;28;20426;-69
2023/10/27 00:10:38;;;;;;;24.38;13.70;;;;;;;10.00;100.00;98962.03;4961064;28;20112;-69
2023/10/27 00:13:04;;;;;;;25.73;13.50;;;;;;;10.01;100.00;98961.84;4946161;28;20473;-69
2023/10/27 00:15:29;;;;;;;22.65;12.85;;;;;;;9.94;100.00;98950.69;4947591;28;20039;-69
2023/10/27 00:17:58;;;;;;;25.15;13.98;;;;;;;9.92;100.00;98955.25;4948467;28;20038;-69
2023/10/27 00:20:24;;;;;;;22.10;12.40;;;;;;;9.95;100.00;98954.88;4967201;28;20047;-69
2023/10/27 00:22:50;;;;;;;25.17;12.93;;;;;;;9.89;100.00;98953.88;4952500;28;20043;-69
2023/10/27 00:25:15;;;;;;;24.30;13.05;;;;;;;9.90;100.00;98955.44;4963241;28;20050;-69
2023/10/27 00:27:41;;;;;;;21.58;11.60;;;;;;;9.91;100.00;98951.88;4961309;28;20034;-69
2023/10/27 00:30:08;;;;;;;23.48;12.50;;;;;;;9.92;100.00;98947.50;4975485;28;20524;-69
2023/10/27 00:32:33;;;;;;;21.27;12.20;;;;;;;9.89;100.00;98935.75;4963563;28;20062;-69
2023/10/27 00:34:59;;;;;;;34.75;14.18;;;;;;;9.92;100.00;98944.91;4931605;28;20053;-70
2023/10/27 00:37:24;;;;;;;19.42;11.07;;;;;;;9.87;100.00;98940.31;4962953;28;20047;-69
2023/10/27 00:39:50;;;;;;;20.30;11.75;;;;;;;9.86;100.00;98937.94;4960856;28;20038;-69
2023/10/27 00:42:16;;;;;;;21.88;11.38;;;;;;;9.91;100.00;98935.56;4947249;28;20613;-69
2023/10/27 00:44:41;;;;;;;21.00;12.48;;;;;;;9.88;100.00;98935.94;4948377;28;20039;-69
2023/10/27 00:47:07;;;;;;;22.15;11.00;;;;;;;9.82;100.00;98936.72;4963384;28;20057;-69
2023/10/27 00:49:33;;;;;;;24.13;11.98;;;;;;;9.81;100.00;98933.31;4986034;28;20045;-69
2023/10/27 00:51:59;;;;;;;24.88;12.10;;;;;;;9.81;100.00;98929.94;4949828;28;20043;-69
2023/10/27 00:54:25;;;;;;;20.42;10.65;;;;;;;9.88;100.00;98928.19;4961113;28;20031;-69
2023/10/27 00:56:52;;;;;;;23.05;11.85;;;;;;;9.84;100.00;98925.19;4949030;28;20094;-69
2023/10/27 00:59:18;;;;;;;18.67;10.20;;;;;;;9.85;100.00;98933.72;4950360;28;20476;-70
2023/10/27 01:01:44;;;;;;;19.17;11.30;;;;;;;9.88;100.00;98935.94;4966538;28;20035;-69
2023/10/27 01:04:09;;;;;;;17.58;10.18;;;;;;;9.88;100.00;98930.75;4950196;28;20029;-69
2023/10/27 01:06:35;;;;;;;19.40;9.98;;;;;;;9.88;100.00;98934.13;4948874;28;20069;-69
2023/10/27 01:09:01;;;;;;;25.02;10.35;;;;;;;10.00;100.00;98934.38;4948770;28;20128;-69
2023/10/27 01:11:26;;;;;;;24.48;10.10;;;;;;;9.90;100.00;98939.91;4948095;28;20056;-69
2023/10/27 01:13:53;;;;;;;19.58;10.00;;;;;;;9.83;100.00;98930.53;4933687;28;20122;-69
2023/10/27 01:16:19;;;;;;;20.30;9.30;;;;;;;9.82;100.00;98931.56;4975825;28;20074;-69
2023/10/27 01:18:44;;;;;;;19.65;8.90;;;;;;;9.93;100.00;98926.59;4969725;28;20116;-69
2023/10/27 01:21:10;;;;;;;23.17;8.82;;;;;;;9.88;100.00;98928.97;4941792;28;20520;-69
2023/10/27 01:23:36;;;;;;;24.40;9.40;;;;;;;9.88;100.00;98923.78;4964202;28;20038;-69
2023/10/27 01:26:03;;;;;;;17.83;7.40;;;;;;;9.82;100.00;98922.00;4947275;28;20070;-69
2023/10/27 01:28:30;;;;;;;23.13;7.95;;;;;;;9.78;100.00;98925.97;4950645;28;20031;-69
2023/10/27 01:30:56;;;;;;;21.20;7.50;;;;;;;9.81;100.00;98924.78;4957948;28;20038;-69
2023/10/27 01:33:25;;;;;;;16.17;6.88;;;;;;;9.78;100.00;98913.03;4954269;28;20045;-70
2023/10/27 01:35:51;;;;;;;13.95;5.72;;;;;;;9.75;100.00;98913.41;4980577;28;20078;-69
2023/10/27 01:38:17;;;;;;;16.25;6.32;;;;;;;9.80;100.00;98911.03;4967024;28;20163;-69
2023/10/27 01:40:43;;;;;;;19.20;5.82;;;;;;;9.77;100.00;98911.41;4970710;28;20497;-69
2023/10/27 01:43:08;;;;;;;12.90;5.43;;;;;;;9.78;100.00;98909.66;4968418;28;20045;-70
2023/10/27 01:45:34;;;;;;;13.07;4.90;;;;;;;9.76;100.00;98902.06;4982027;28;20089;-69
2023/10/27 01:47:59;;;;;;;15.45;4.70;;;;;;;9.90;100.00;98902.88;4951006;28;20037;-69
2023/10/27 01:50:25;;;;;;;14.07;5.18;;;;;;;9.84;100.00;98903.69;4969354;28;20101;-69
2023/10/27 01:52:50;;;;;;;16.10;4.28;;;;;;;9.77;100.00;98903.66;4968968;28;20038;-69
2023/10/27 01:55:16;;;;;;;12.65;4.15;;;;;;;9.79;100.00;98903.47;4969193;28;20049;-69
2023/10/27 01:57:41;;;;;;;14.63;4.30;;;;;;;9.78;100.00;98899.28;4968228;28;20049;-69
2023/10/27 02:00:07;;;;;;;14.38;4.00;;;;;;;9.77;100.00;98908.03;4971404;28;20436;-69
2023/10/27 02:02:37;;;;;;;14.85;4.30;;;;;;;9.72;100.00;98906.06;4984943;28;20039;-70
2023/10/27 02:05:04;;;;;;;19.92;4.53;;;;;;;9.70;100.00;98895.06;4969242;28;20032;-69
2023/10/27 02:07:29;;;;;;;24.50;3.92;;;;;;;9.70;100.00;98897.66;4969500;28;20041;-69
2023/10/27 02:09:59;;;;;;;12.75;4.53;;;;;;;9.64;100.00;98901.84;4972003;28;20393;-72
2023/10/27 02:12:25;;;;;;;17.38;4.07;;;;;;;9.74;100.00;98897.09;4951372;28;20057;-70
2023/10/27 02:14:51;;;;;;;8.98;3.17;;;;;;;9.67;100.00;98896.28;4964991;28;20045;-69
2023/10/27 02:17:16;;;;;;;17.38;3.47;;;;;;;9.69;100.00;98899.47;4953387;28;20042;-70
2023/10/27 02:19:42;;;;;;;11.90;3.03;;;;;;;9.59;100.00;98895.66;4967850;28;20033;-69
2023/10/27 02:22:07;;;;;;;15.88;3.83;;;;;;;9.62;100.00;98885.72;4946670;28;20044;-69
2023/10/27 02:24:33;;;;;;;14.75;3.58;;;;;;;9.61;100.00;98884.13;4933487;28;20042;-69
2023/10/27 02:26:58;;;;;;;9.25;2.60;;;;;;;9.57;100.00;98882.94;4949423;28;20074;-69
2023/10/27 02:29:24;;;;;;;19.63;3.63;;;;;;;9.59;100.00;98882.72;4946093;28;20031;-69
2023/10/27 02:31:50;;;;;;;16.95;3.53;;;;;;;9.67;100.00;98882.53;4963047;28;20049;-69
2023/10/27 02:34:15;;;;;;;11.82;3.10;;;;;;;9.63;100.00;98874.38;4947046;28;20128;-69
2023/10/27 02:36:41;;;;;;;16.13;3.40;;;;;;;9.62;100.00;98867.59;4931083;28;20051;-69
2023/10/27 02:39:06;;;;;;;9.80;2.90;;;;;;;9.62;100.00;98872.78;4949718;28;20636;-69
2023/10/27 02:41:35;;;;;;;10.60;2.95;;;;;;;9.55;100.00;98866.81;4960098;28;20541;-69
2023/10/27 02:44:01;;;;;;;18.13;3.25;;;;;;;9.57;100.00;98864.81;4962051;28;20119;-69
2023/10/27 02:46:26;;;;;;;15.57;2.80;;;;;;;9.56;100.00;98865.78;4959476;28;20056;-69
2023/10/27 02:48:52;;;;;;;14.18;3.25;;;;;;;9.57;100.00;98857.06;4944490;28;20065;-69
2023/10/27 02:51:17;;;;;;;10.80;2.70;;;;;;;9.49;100.00;98867.56;4947148;28;20513;-69
2023/10/27 02:53:43;;;;;;;12.43;4.05;;;;;;;9.50;100.00;98864.78;4950745;28;20121;-69
2023/10/27 02:56:09;;;;;;;17.67;3.33;;;;;;;9.50;100.00;98854.44;4947451;28;20047;-69
2023/10/27 02:58:35;;;;;;;16.00;3.38;;;;;;;9.47;100.00;98860.00;4947744;28;20276;-69
2023/10/27 03:01:08;;;;;;;11.70;3.25;;;;;;;9.51;100.00;98852.63;4944889;28;20039;-70
2023/10/27 03:03:34;;;;;;;18.88;4.40;;;;;;;9.52;100.00;98846.50;4947907;28;20046;-69
2023/10/27 03:06:00;;;;;;;12.27;3.47;;;;;;;9.42;100.00;98849.47;4961240;28;20043;-69
2023/10/27 03:08:25;;;;;;;14.20;2.92;;;;;;;9.38;100.00;98842.28;4964017;28;20813;-69
2023/10/27 03:10:51;;;;;;;15.23;4.15;;;;;;;9.49;100.00;98839.94;4959465;28;20046;-69
2023/10/27 03:13:16;;;;;;;14.48;3.00;;;;;;;9.40;100.00;98837.69;4945993;28;20030;-69
2023/10/27 03:15:42;;;;;;;10.40;2.85;;;;;;;9.38;100.00;98837.09;4946034;28;20426;-69
2023/10/27 03:18:07;;;;;;;12.15;2.72;;;;;;;9.38;100.00;98835.31;4964977;28;20444;-69
2023/10/27 03:20:33;;;;;;;18.33;3.10;;;;;;;9.49;100.00;98837.34;4962521;28;20061;-69
2023/10/27 03:22:58;;;;;;;16.67;3.47;;;;;;;9.42;100.00;98833.94;4964285;28;20034;-69
2023/10/27 03:25:24;;;;;;;15.60;3.47;;;;;;;9.42;100.00;98838.28;4929904;28;20035;-69
2023/10/27 03:27:49;;;;;;;12.30;3.80;;;;;;;9.45;100.00;98843.09;4945207;28;20409;-69
2023/10/27 03:30:15;;;;;;;10.60;3.45;;;;;;;9.39;100.00;98836.91;4947363;28;20053;-69
2023/10/27 03:32:41;;;;;;;13.75;3.63;;;;;;;9.36;100.00;98839.88;4945683;28;20089;-69
2023/10/27 03:35:07;;;;;;;13.13;3.90;;;;;;;9.35;100.00;98831.31;4946242;28;20034;-69
2023/10/27 03:37:33;;;;;;;14.43;4.70;;;;;;;9.34;100.00;98837.50;4962415;28;20039;-69
2023/10/27 03:39:58;;;;;;;12.57;4.35;;;;;;;9.35;100.00;98838.28;4946772;28;20065;-70
2023/10/27 03:42:24;;;;;;;14.30;4.28;;;;;;;9.35;100.00;98825.34;4945891;28;20027;-69
2023/10/27 03:44:49;;;;;;;11.18;4.70;;;;;;;9.35;100.00;98830.53;4948285;28;20244;-69
2023/10/27 03:47:15;;;;;;;21.15;5.97;;;;;;;9.43;100.00;98832.13;4962642;28;20306;-69
2023/10/27 03:49:41;;;;;;;27.75;5.28;;;;;;;9.40;100.00;98824.75;4931790;28;20101;-69
2023/10/27 03:52:09;;;;;;;16.38;4.93;;;;;;;9.35;100.00;98827.94;4948311;28;20045;-69
2023/10/27 03:54:34;;;;;;;30.42;5.40;;;;;;;9.40;100.00;98823.00;4984853;28;20081;-69
2023/10/27 03:57:01;;;;;;;19.58;5.18;;;;;;;9.32;100.00;98826.56;4968409;28;20046;-69
2023/10/27 03:59:27;;;;;;;16.88;4.70;;;;;;;9.29;100.00;98824.34;4949139;28;20039;-69
2023/10/27 04:01:53;;;;;;;20.00;5.63;;;;;;;9.33;100.00;98827.34;4963423;28;20474;-69
2023/10/27 04:04:18;;;;;;;14.90;4.80;;;;;;;9.30;100.00;98823.34;4946201;28;20050;-69
2023/10/27 04:06:45;;;;;;;12.27;4.60;;;;;;;9.28;100.00;98821.97;4962593;28;20043;-69
2023/10/27 04:09:11;;;;;;;10.00;3.88;;;;;;;9.28;100.00;98820.16;4978355;23;20046;-69
2023/10/27 04:11:36;;;;;;;15.18;4.75;;;;;;;9.30;100.00;98815.59;4959614;28;20082;-69
2023/10/27 04:14:04;;;;;;;12.00;3.92;;;;;;;9.28;100.00;98807.22;4963627;28;20035;-69
2023/10/27 04:16:30;;;;;;;15.60;4.32;;;;;;;9.26;100.00;98819.56;4956508;28;20515;-69
2023/10/27 04:18:55;;;;;;;19.13;4.40;;;;;;;9.23;100.00;98809.63;4968462;28;20038;-69
2023/10/27 04:21:21;;;;;;;16.88;4.68;;;;;;;9.27;100.00;98817.78;4979893;28;20392;-69
2023/10/27 04:23:47;;;;;;;17.25;4.18;;;;;;;9.26;100.00;98808.44;4966170;28;20026;-69
2023/10/27 04:26:13;;;;;;;16.00;4.82;;;;;;;9.31;100.00;98813.81;4967284;28;20034;-69
2023/10/27 04:28:39;;;;;;;14.63;5.20;;;;;;;9.28;100.00;98807.22;4982452;28;20053;-69
2023/10/27 04:31:05;;;;;;;14.52;4.60;;;;;;;9.29;100.00;98806.25;4970954;28;20043;-69
2023/10/27 04:33:31;;;;;;;18.08;4.35;;;;;;;9.26;100.00;98804.03;4962729;28;20404;-69
2023/10/27 04:35:57;;;;;;;14.93;4.72;;;;;;;9.17;100.00;98805.22;4968986;28;20035;-69
2023/10/27 04:38:22;;;;;;;15.50;5.40;;;;;;;9.16;100.00;98801.84;4980870;28;20042;-69
2023/10/27 04:40:51;;;;;;;15.90;6.10;;;;;;;9.14;100.00;98803.03;4981805;28;20117;-69
2023/10/27 04:43:17;;;;;;;17.75;5.25;;;;;;;9.15;100.00;98802.84;4968157;28;20027;-69
2023/10/27 04:45:42;;;;;;;16.25;4.93;;;;;;;9.24;100.00;98800.84;4982806;28;20648;-69
2023/10/27 04:48:08;;;;;;;18.20;4.85;;;;;;;9.18;100.00;98803.44;4980282;28;20031;-69
2023/10/27 04:50:35;;;;;;;10.38;4.25;;;;;;;9.12;100.00;98803.22;4981148;28;20050;-69
2023/10/27 04:53:00;;;;;;;21.25;5.40;;;;;;;9.15;100.00;98808.00;4980440;28;20489;-69
2023/10/27 04:55:26;;;;;;;15.52;5.45;;;;;;;9.16;100.00;98807.00;4980885;28;20101;-68
2023/10/27 04:57:51;;;;;;;17.33;6.38;;;;;;;9.29;100.00;98802.88;4949682;28;20038;-69
2023/10/27 05:00:17;;;;;;;12.60;4.75;;;;;;;9.20;100.00;98797.06;4982230;28;20035;-69
2023/10/27 05:02:42;;;;;;;23.95;6.60;;;;;;;9.15;100.00;98802.03;4967285;28;20377;-69
2023/10/27 05:05:08;;;;;;;23.90;7.28;;;;;;;9.26;100.00;98809.22;4969089;28;20042;-69
2023/10/27 05:07:35;;;;;;;23.90;6.20;;;;;;;9.13;100.00;98807.38;4985978;28;20022;-69
2023/10/27 05:10:00;;;;;;;22.98;6.13;;;;;;;9.07;100.00;98799.63;4967224;28;20084;-69
2023/10/27 05:12:26;;;;;;;26.85;7.20;;;;;;;9.16;100.00;98796.66;4954947;28;20034;-69
2023/10/27 05:14:51;;;;;;;26.50;6.88;;;;;;;9.05;100.00;98799.03;4988885;28;20508;-69
2023/10/27 05:17:17;;;;;;;29.67;6.95;;;;;;;9.08;100.00;98802.03;4966559;28;20047;-69
2023/10/27 05:19:42;;;;;;;24.02;7.25;;;;;;;9.13;100.00;98802.22;4986027;28;20042;-69
2023/10/27 05:22:08;;;;;;;16.75;7.65;;;;;;;9.16;100.00;98795.88;4967582;28;20049;-69
2023/10/27 05:24:34;;;;;;;23.52;7.68;;;;;;;9.12;100.00;98798.06;4968266;28;20038;-69
2023/10/27 05:27:00;;;;;;;24.52;7.72;;;;;;;9.05;100.00;98793.84;4971717;28;20050;-69
2023/10/27 05:29:26;;;;;;;20.65;7.45;;;;;;;9.09;100.00;98800.22;4971917;28;20400;-69
2023/10/27 05:31:52;;;;;;;18.02;7.22;;;;;;;9.05;100.00;98791.28;4982595;28;20046;-69
2023/10/27 05:34:18;;;;;;;25.75;8.15;;;;;;;9.05;100.00;98794.66;4980476;28;20037;-69
2023/10/27 05:36:43;;;;;;;20.73;7.85;;;;;;;9.07;100.00;98794.47;4968107;28;20161;-69
2023/10/27 05:39:16;;;;;;;26.13;7.97;;;;;;;9.15;100.00;98797.66;4982987;28;20038;-69
2023/10/27 05:41:45;;;;;;;18.70;8.07;;;;;;;9.19;100.00;98792.88;4968167;28;20034;-69
2023/10/27 05:44:10;;;;;;;24.20;8.05;;;;;;;9.22;100.00;98789.13;4963858;28;20043;-69
2023/10/27 05:46:35;;;;;;;17.40;6.55;;;;;;;9.15;100.00;98784.75;4958244;28;20109;-69
2023/10/27 05:49:03;;;;;;;25.88;7.55;;;;;;;9.14;100.00;98795.28;4950001;28;20046;-69
2023/10/27 05:51:28;;;;;;;22.25;7.10;;;;;;;9.11;100.00;98791.28;4969939;28;20129;-69
2023/10/27 05:53:54;;;;;;;19.08;7.53;;;;;;;9.11;100.00;98795.66;4969699;28;20663;-69
2023/10/27 05:56:19;;;;;;;24.27;7.97;;;;;;;9.16;100.00;98790.72;4985314;28;20038;-69
2023/10/27 05:58:46;;;;;;;24.80;7.28;;;;;;;9.06;100.00;98788.50;4970584;28;20489;-69
2023/10/27 06:01:12;;;;;;;14.77;6.13;;;;;;;9.05;100.00;98788.69;4984926;28;20033;-69
2023/10/27 06:03:37;;;;;;;18.10;8.50;;;;;;;9.11;100.00;98791.28;4985236;28;20042;-69
2023/10/27 06:06:03;;;;;;;23.00;7.75;;;;;;;9.17;100.00;98792.28;4982401;28;20041;-69
2023/10/27 06:08:29;;;;;;;18.33;6.40;;;;;;;9.11;100.00;98795.66;4970611;28;20061;-69
2023/10/27 06:10:54;;;;;;;17.23;6.22;;;;;;;9.08;100.00;98791.69;4976535;28;20494;-69
2023/10/27 06:13:19;;;;;;;23.30;6.80;;;;;;;9.05;100.00;98794.66;4963703;28;20046;-69
2023/10/27 06:15:45;;;;;;;20.85;6.38;;;;;;;9.08;100.00;98786.50;4964550;28;20043;-69
2023/10/27 06:18:10;;;;;;;18.23;6.60;;;;;;;9.05;100.00;98788.69;4966480;28;20042;-69
2023/10/27 06:20:36;;;;;;;21.38;7.13;;;;;;;9.07;100.00;98790.06;4947097;28;20047;-69
2023/10/27 06:23:02;;;;;;;20.55;6.75;;;;;;;9.10;100.00;98796.66;4953007;28;20085;-69
2023/10/27 06:25:27;;;;;;;24.92;6.53;;;;;;;9.10;100.00;98796.66;4963066;28;20043;-69
2023/10/27 06:27:54;;;;;;;16.00;6.95;;;;;;;9.19;100.00;98795.47;4951106;28;20043;-69
2023/10/27 06:30:20;;;;;;;18.80;6.20;;;;;;;9.11;100.00;98791.28;4950950;28;20042;-69
2023/10/27 06:32:47;;;;;;;17.95;6.30;;;;;;;9.10;100.00;98800.03;4964501;28;20096;-69
2023/10/27 06:35:13;;;;;;;17.13;5.78;;;;;;;9.10;100.00;98789.69;4960727;28;20034;-69
2023/10/27 06:37:38;;;;;;;20.65;6.13;;;;;;;9.12;100.00;98790.28;4947457;28;20710;-69
2023/10/27 06:40:04;;;;;;;20.55;6.20;;;;;;;9.24;100.00;98798.28;4961149;28;20036;-69
2023/10/27 06:42:30;;;;;;;19.38;7.90;;;;;;;9.24;100.00;98794.91;4952242;28;20031;-69
2023/10/27 06:44:56;;;;;;;15.02;5.70;;;;;;;9.27;100.00;98794.50;4950874;28;20034;-69
2023/10/27 06:47:21;;;;;;;13.40;5.35;;;;;;;9.17;100.00;98794.88;4953672;28;20031;-68
2023/10/27 06:49:47;;;;;;;18.17;6.13;;;;;;;9.17;100.00;98797.44;4965587;28;20038;-69
2023/10/27 06:52:13;;;;;;;21.00;6.85;;;;;;;9.20;100.00;98797.06;4949377;28;20038;-69
2023/10/27 06:54:40;;;;;;;16.45;6.60;;;;;;;9.19;100.00;98799.84;4964625;28;20472;-69
2023/10/27 06:57:07;;;;;;;19.33;6.72;;;;;;;9.25;100.00;98789.53;4964541;28;22281;-69
2023/10/27 06:59:32;;;;;;;26.15;8.10;;;;;;;9.29;100.00;98795.13;4965954;28;20474;-69
2023/10/27 07:01:58;;;;;;;24.55;10.35;;;;;;;9.26;100.00;98800.66;4937409;28;20046;-69
2023/10/27 07:04:23;;;;;;;27.38;10.77;;;;;;;9.33;100.00;98796.31;4960597;28;20042;-69
2023/10/27 07:06:49;;;;;;;25.10;11.68;;;;;;;9.30;100.00;98805.25;4961467;28;20153;-69
2023/10/27 07:09:15;;;;;;;72.40;31.92;;;;;;;9.26;100.00;98801.47;4961797;28;20030;-69
2023/10/27 07:11:40;;;;;;;57.65;24.30;;;;;;;9.25;100.00;98806.81;4948177;28;20498;-69
2023/10/27 07:14:06;;;;;;;18.30;8.15;;;;;;;9.38;100.00;98806.88;4969691;28;20512;-69
2023/10/27 07:16:31;;;;;;;19.75;7.68;;;;;;;9.32;100.00;98805.06;4949904;28;20073;-69
2023/10/27 07:18:56;;;;;;;30.08;9.23;;;;;;;9.41;100.00;98805.69;4962954;28;20042;-69
2023/10/27 07:21:22;;;;;;;23.58;10.38;;;;;;;9.43;100.00;98817.41;4966090;28;20027;-69
2023/10/27 07:23:48;;;;;;;23.02;8.82;;;;;;;9.42;100.00;98813.25;4961105;28;20034;-69
2023/10/27 07:26:17;;;;;;;26.05;8.57;;;;;;;9.51;100.00;98816.41;4965133;28;20038;-69
2023/10/27 07:28:43;;;;;;;13.90;7.60;;;;;;;9.43;100.00;98811.44;4976105;28;20109;-69
2023/10/27 07:31:09;;;;;;;15.35;6.78;;;;;;;9.50;100.00;98810.47;4949259;28;20081;-69
2023/10/27 07:33:38;;;;;;;17.17;6.45;;;;;;;9.51;100.00;98809.47;4950607;28;20070;-69
2023/10/27 07:36:05;;;;;;;14.73;6.75;;;;;;;9.49;100.00;98808.88;4959943;28;20031;-69
2023/10/27 07:38:31;;;;;;;17.50;7.18;;;;;;;9.55;100.00;98808.09;4947183;28;20034;-69
2023/10/27 07:40:58;;;;;;;14.15;6.53;;;;;;;9.62;100.00;98807.28;4964602;28;20417;-69
2023/10/27 07:43:24;;;;;;;16.15;6.38;;;;;;;9.57;100.00;98804.47;4944316;28;20031;-69
2023/10/27 07:45:50;;;;;;;30.85;12.57;;;;;;;9.57;100.00;98815.66;4953663;28;20041;-69
2023/10/27 07:48:15;;;;;;;17.60;6.97;;;;;;;9.61;100.00;98819.44;4982548;28;20042;-69
2023/10/27 07:50:42;;;;;;;33.25;12.82;;;;;;;9.63;100.00;98817.44;4980081;28;20049;-69
2023/10/27 07:53:08;;;;;;;29.20;12.82;;;;;;;9.66;100.00;98818.81;4954350;28;20169;-69
2023/10/27 07:55:35;;;;;;;35.42;13.07;;;;;;;9.70;100.00;98831.19;4976576;28;20039;-69
2023/10/27 07:58:00;;;;;;;37.60;14.43;;;;;;;9.78;100.00;98827.59;4982410;28;20038;-69
2023/10/27 08:00:26;;;;;;;17.00;6.25;;;;;;;9.82;100.00;98833.97;4980835;28;20064;-69
2023/10/27 08:02:52;;;;;;;13.90;6.82;;;;;;;9.82;100.00;98835.78;4982540;28;20034;-69
2023/10/27 08:05:18;;;;;;;35.00;12.57;;;;;;;9.97;100.00;98838.19;4961571;28;20167;-69
2023/10/27 08:07:44;;;;;;;14.95;7.55;;;;;;;9.94;100.00;98847.13;4979263;28;20081;-69
2023/10/27 08:10:10;;;;;;;13.93;5.60;;;;;;;9.90;100.00;98841.53;4964983;28;20041;-70
2023/10/27 08:12:36;;;;;;;10.55;4.05;;;;;;;10.02;100.00;98840.94;4982610;28;20034;-69
2023/10/27 08:15:05;;;;;;;8.43;4.05;;;;;;;10.00;100.00;98854.13;4964545;28;20106;-69
2023/10/27 08:17:34;;;;;;;12.52;5.53;;;;;;;9.96;100.00;98847.72;4978830;28;20469;-69
2023/10/27 08:20:00;;;;;;;25.10;8.80;;;;;;;9.98;100.00;98858.66;4980474;28;20042;-69
2023/10/27 08:22:25;;;;;;;18.55;6.70;;;;;;;10.09;100.00;98865.03;4982312;28;20111;-69
2023/10/27 08:24:50;;;;;;;22.20;8.88;;;;;;;10.01;100.00;98860.88;4965509;28;20034;-69
2023/10/27 08:27:16;;;;;;;24.50;7.85;;;;;;;10.13;100.00;98867.06;4961349;28;20436;-69
2023/10/27 08:29:41;;;;;;;24.65;7.30;;;;;;;10.06;100.00;98874.03;4961163;28;20038;-69
2023/10/27 08:32:07;;;;;;;33.75;10.15;;;;;;;10.08;100.00;98868.66;4960298;28;20445;-69
2023/10/27 08:34:34;;;;;;;19.52;4.95;;;;;;;10.11;100.00;98876.00;4960955;28;20030;-69
2023/10/27 08:37:00;;;;;;;47.40;13.95;;;;;;;10.09;100.00;98878.00;4954511;28;20074;-69
2023/10/27 08:39:25;;;;;;;15.15;5.72;;;;;;;10.15;100.00;98884.97;4967488;28;20045;-69
2023/10/27 08:41:52;;;;;;;5.38;2.83;;;;;;;10.16;100.00;98880.59;4981297;28;20047;-70
2023/10/27 08:44:18;;;;;;;17.20;5.65;;;;;;;10.16;100.00;98883.19;4971937;28;20528;-69
2023/10/27 08:46:45;;;;;;;3.97;2.50;;;;;;;10.10;100.00;98887.38;4982892;28;20039;-69
2023/10/27 08:49:10;;;;;;;5.50;3.53;;;;;;;10.16;100.00;98888.38;4951693;28;20038;-69
2023/10/27 08:51:39;;;;;;;5.05;2.95;;;;;;;10.19;100.00;98885.38;4965887;28;20590;-69
2023/10/27 08:54:05;;;;;;;4.40;2.40;;;;;;;10.22;100.00;98888.34;4961889;28;20035;-69
2023/10/27 08:56:31;;;;;;;3.60;2.28;;;;;;;10.30;100.00;98887.34;4974932;28;20042;-69
2023/10/27 08:58:57;;;;;;;6.55;2.75;;;;;;;10.28;100.00;98881.56;4964174;28;20035;-69
2023/10/27 09:01:23;;;;;;;6.05;3.00;;;;;;;10.29;100.00;98890.94;4976973;28;20117;-69
2023/10/27 09:04:08;;;;;;;7.63;3.30;;;;;;;10.36;100.00;98885.78;4963668;28;20035;-69
2023/10/27 09:06:38;;;;;;;7.10;3.03;;;;;;;10.25;100.00;98882.78;4959890;28;20035;-69
2023/10/27 09:09:09;;;;;;;8.82;4.25;;;;;;;10.36;100.00;98888.38;4965326;28;20039;-69
2023/10/27 09:11:42;;;;;;;7.85;5.25;;;;;;;10.44;100.00;98880.41;4960299;28;20076;-69
2023/10/27 09:14:22;;;;;;;;;;;;;;;10.38;100.00;98883.78;4983599;28;20088;-70
2023/10/27 09:16:48;;;;;;;15.00;9.45;;;;;;;10.41;100.00;98875.63;4984824;28;20020;-69
2023/10/27 09:19:25;;;;;;;9.30;4.57;;;;;;;10.46;100.00;98883.59;4982547;28;20137;-69
2023/10/27 09:21:52;;;;;;;5.97;3.97;;;;;;;10.51;100.00;98888.97;4985803;28;20042;-69
2023/10/27 09:24:36;;;;;;;7.15;5.32;;;;;;;10.43;100.00;98886.56;4983346;28;20033;-69
2023/10/27 09:27:02;;;;;;;11.95;5.13;;;;;;;10.46;100.00;98893.97;4985533;28;20026;-69
2023/10/27 09:29:31;;;;;;;15.30;5.22;;;;;;;10.50;100.00;98892.56;4967997;28;20400;-69
2023/10/27 09:31:56;;;;;;;10.63;5.97;;;;;;;10.56;100.00;98890.94;4965160;28;20051;-69
2023/10/27 09:34:24;;;;;;;10.70;6.55;;;;;;;10.54;100.00;98891.16;4968682;28;20042;-69
2023/10/27 09:36:54;;;;;;;9.27;5.43;;;;;;;10.62;100.00;98903.88;4966054;28;20035;-69
2023/10/27 09:39:23;;;;;;;9.93;5.00;;;;;;;10.65;100.00;98894.94;4966221;28;20049;-69
2023/10/27 09:42:03;;;;;;;9.35;5.55;;;;;;;10.67;100.00;98904.09;4981914;28;20069;-69
2023/10/27 09:44:59;;;;;;;8.55;4.90;;;;;;;10.67;100.00;98904.09;4981780;28;20479;-69
2023/10/27 09:47:34;;;;;;;7.57;4.82;;;;;;;10.67;100.00;98904.09;4978671;28;20046;-69
2023/10/27 09:50:08;;;;;;;9.02;4.75;;;;;;;10.69;100.00;98906.47;4985003;28;20034;-70
2023/10/27 09:52:34;;;;;;;8.07;4.40;;;;;;;10.80;100.00;98908.44;4964869;28;20060;-69
2023/10/27 09:55:01;;;;;;;7.50;4.47;;;;;;;10.88;100.00;98912.63;4964927;28;20073;-70
2023/10/27 09:57:28;;;;;;;10.70;4.93;;;;;;;11.08;100.00;98908.16;4980631;28;20027;-69
2023/10/27 09:59:56;;;;;;;9.55;5.60;;;;;;;11.03;100.00;98912.38;4967689;28;20121;-71
2023/10/27 10:02:23;;;;;;;9.75;4.70;;;;;;;11.18;100.00;98912.91;4984291;28;20042;-69
2023/10/27 10:04:51;;;;;;;8.13;4.60;;;;;;;11.32;100.00;98911.09;4985199;28;20532;-69
2023/10/27 10:07:34;;;;;;;9.57;4.57;;;;;;;11.28;100.00;98915.06;4949950;28;20050;-69
2023/10/27 10:10:26;;;;;;;11.07;4.80;;;;;;;11.22;100.00;98914.09;4961615;28;20161;-69
2023/10/27 10:13:05;;;;;;;7.15;3.88;;;;;;;11.26;100.00;98911.88;4961922;28;20038;-69
2023/10/27 10:15:56;;;;;;;5.57;3.65;;;;;;;11.28;100.00;98915.06;4949842;28;20416;-70
2023/10/27 10:18:25;;;;;;;8.48;4.18;;;;;;;11.33;100.00;98927.44;4965569;28;20645;-69
2023/10/27 10:20:52;;;;;;;7.75;4.65;;;;;;;11.20;100.00;98926.47;4964021;28;20050;-69
2023/10/27 10:23:19;;;;;;;6.95;4.00;;;;;;;11.16;100.00;98933.06;4966040;28;20073;-69
2023/10/27 10:25:54;;;;;;;6.93;3.97;;;;;;;11.08;100.00;98941.09;4979472;28;20580;-69
2023/10/27 10:28:20;;;;;;;8.40;3.90;;;;;;;11.06;100.00;98936.09;4966661;28;20105;-69
2023/10/27 10:30:47;;;;;;;7.15;4.35;;;;;;;11.19;100.00;98939.66;4979572;28;20034;-69
2023/10/27 10:33:24;;;;;;;8.40;4.60;;;;;;;11.20;100.00;98941.25;4984241;28;20038;-69
2023/10/27 10:35:51;;;;;;;7.32;3.70;;;;;;;11.18;100.00;98943.25;4964643;28;20053;-69
2023/10/27 10:38:20;;;;;;;7.50;3.60;;;;;;;11.24;100.00;98938.03;4981340;28;20463;-69
2023/10/27 10:40:52;;;;;;;6.97;3.85;;;;;;;11.12;100.00;98937.09;4964250;28;20039;-69
2023/10/27 10:43:29;;;;;;;12.37;3.83;;;;;;;11.12;100.00;98941.50;4968725;28;20027;-69
2023/10/27 10:45:59;;;;;;;8.23;4.13;;;;;;;11.19;100.00;98939.66;4983169;28;20089;-69
2023/10/27 10:48:32;;;;;;;7.40;4.25;;;;;;;11.29;100.00;98932.25;4964733;28;20042;-69
2023/10/27 10:51:04;;;;;;;9.05;3.92;;;;;;;11.24;100.00;98945.81;4982620;28;20045;-69
2023/10/27 10:53:30;;;;;;;9.18;4.15;;;;;;;11.18;100.00;98944.03;4968122;28;20031;-69
2023/10/27 10:55:58;;;;;;;8.70;4.53;;;;;;;11.16;100.00;98942.66;4982790;28;20060;-69
2023/10/27 10:58:26;;;;;;;7.90;4.40;;;;;;;11.19;100.00;98950.03;4965811;28;20038;-70
2023/10/27 11:00:53;;;;;;;8.00;4.82;;;;;;;11.12;100.00;98944.88;4963582;28;20043;-70
2023/10/27 11:03:21;;;;;;;10.95;5.13;;;;;;;11.14;100.00;98955.06;4951570;28;20042;-69
2023/10/27 11:05:47;;;;;;;13.00;6.20;;;;;;;11.17;100.00;98946.84;4963940;28;20034;-69
2023/10/27 11:08:23;;;;;;;11.82;6.43;;;;;;;11.15;100.00;98944.47;4984076;28;20069;-69
2023/10/27 11:10:58;;;;;;;12.73;6.45;;;;;;;11.25;100.00;98947.41;4962879;28;20050;-69
2023/10/27 11:13:24;;;;;;;10.90;6.28;;;;;;;11.27;100.00;98947.22;4950068;28;20034;-69
2023/10/27 11:15:50;;;;;;;13.45;7.50;;;;;;;11.25;100.00;98944.03;4981439;28;20090;-69
2023/10/27 11:18:16;;;;;;;16.80;7.15;;;;;;;11.19;100.00;98943.06;4982247;28;20597;-69
2023/10/27 11:20:47;;;;;;;17.33;7.95;;;;;;;11.28;100.00;98935.81;4963747;28;20041;-69
2023/10/27 11:23:14;;;;;;;17.45;7.82;;;;;;;11.37;100.00;98939.78;4957348;28;20035;-69